sensor_id;sensor_type;location;lat;lon;timestamp;P1;durP1;ratioP1;P2;durP2;ratioP2
39654;SDS011;25336;59.944;11.010;2024-01-27T00:00:11;4.55;;;2.05;;
39654;SDS011;25336;59.944;11.010;2024-01-27T00:02:39;5.90;;;2.08;;
39654;SDS011;25336;59.944;11.010;2024-01-27T00:05:05;3.72;;;2.05;;
39654;SDS011;25336;59.944;11.010;2024-01-27T00:07:31;3.55;;;2.05;;
39654;SDS011;25336;59.944;11.010;2024-01-27T00:09:57;2.28;;;1.65;;
39654;SDS011;25336;59.944;11.010;2024-01-27T00:12:24;3.50;;;2.10;;
39654;SDS011;25336;59.944;11.010;2024-01-27T00:14:50;5.50;;;2.05;;
39654;SDS011;25336;59.944;11.010;2024-01-27T00:17:15;5.95;;;2.58;;
39654;SDS011;25336;59.944;11.010;2024-01-27T00:19:41;6.05;;;3.38;;
39654;SDS011;25336;59.944;11.010;2024-01-27T00:22:07;5.57;;;2.58;;
39654;SDS011;25336;59.944;11.010;2024-01-27T00:24:33;3.63;;;2.20;;
39654;SDS011;25336;59.944;11.010;2024-01-27T00:26:59;3.83;;;2.28;;
39654;SDS011;25336;59.944;11.010;2024-01-27T00:29:25;3.03;;;2.10;;
39654;SDS011;25336;59.944;11.010;2024-01-27T00:31:51;4.25;;;1.70;;
39654;SDS011;25336;59.944;11.010;2024-01-27T00:34:19;3.08;;;1.55;;
39654;SDS011;25336;59.944;11.010;2024-01-27T00:36:45;3.85;;;1.70;;
39654;SDS011;25336;59.944;11.010;2024-01-27T00:39:17;4.70;;;1.90;;
39654;SDS011;25336;59.944;11.010;2024-01-27T00:41:43;4.28;;;1.88;;
39654;SDS011;25336;59.944;11.010;2024-01-27T00:44:09;5.50;;;1.80;;
39654;SDS011;25336;59.944;11.010;2024-01-27T00:46:38;4.00;;;1.83;;
39654;SDS011;25336;59.944;11.010;2024-01-27T00:49:04;3.35;;;1.65;;
39654;SDS011;25336;59.944;11.010;2024-01-27T00:51:30;4.90;;;1.70;;
39654;SDS011;25336;59.944;11.010;2024-01-27T00:53:56;2.30;;;1.48;;
39654;SDS011;25336;59.944;11.010;2024-01-27T00:56:21;3.15;;;1.77;;
39654;SDS011;25336;59.944;11.010;2024-01-27T00:58:47;4.85;;;2.55;;
39654;SDS011;25336;59.944;11.010;2024-01-27T01:01:13;4.32;;;1.75;;
39654;SDS011;25336;59.944;11.010;2024-01-27T01:03:39;1.70;;;1.60;;
39654;SDS011;25336;59.944;11.010;2024-01-27T01:06:04;2.17;;;1.10;;
39654;SDS011;25336;59.944;11.010;2024-01-27T01:08:31;1.45;;;1.13;;
39654;SDS011;25336;59.944;11.010;2024-01-27T01:10:57;2.03;;;1.65;;
39654;SDS011;25336;59.944;11.010;2024-01-27T01:13:22;7.65;;;1.58;;
39654;SDS011;25336;59.944;11.010;2024-01-27T01:15:48;2.45;;;1.42;;
39654;SDS011;25336;59.944;11.010;2024-01-27T01:18:14;3.10;;;1.40;;
39654;SDS011;25336;59.944;11.010;2024-01-27T01:20:40;4.10;;;1.33;;
39654;SDS011;25336;59.944;11.010;2024-01-27T01:23:06;3.50;;;1.40;;
39654;SDS011;25336;59.944;11.010;2024-01-27T01:25:32;2.05;;;1.35;;
39654;SDS011;25336;59.944;11.010;2024-01-27T01:27:58;1.77;;;1.10;;
39654;SDS011;25336;59.944;11.010;2024-01-27T01:30:23;1.52;;;1.23;;
39654;SDS011;25336;59.944;11.010;2024-01-27T01:32:49;2.35;;;1.30;;
39654;SDS011;25336;59.944;11.010;2024-01-27T01:35:15;3.22;;;1.00;;
39654;SDS011;25336;59.944;11.010;2024-01-27T01:37:41;3.75;;;1.20;;
39654;SDS011;25336;59.944;11.010;2024-01-27T01:40:07;2.10;;;1.10;;
39654;SDS011;25336;59.944;11.010;2024-01-27T01:42:33;1.95;;;1.15;;
39654;SDS011;25336;59.944;11.010;2024-01-27T01:44:59;3.83;;;2.47;;
39654;SDS011;25336;59.944;11.010;2024-01-27T01:47:24;2.28;;;1.20;;
39654;SDS011;25336;59.944;11.010;2024-01-27T01:49:50;2.30;;;1.48;;
39654;SDS011;25336;59.944;11.010;2024-01-27T01:52:18;2.55;;;1.55;;
39654;SDS011;25336;59.944;11.010;2024-01-27T01:54:49;3.15;;;1.38;;
39654;SDS011;25336;59.944;11.010;2024-01-27T01:57:15;5.10;;;1.30;;
39654;SDS011;25336;59.944;11.010;2024-01-27T01:59:41;2.90;;;1.30;;
39654;SDS011;25336;59.944;11.010;2024-01-27T02:02:08;1.52;;;1.42;;
39654;SDS011;25336;59.944;11.010;2024-01-27T02:04:41;1.45;;;1.15;;
39654;SDS011;25336;59.944;11.010;2024-01-27T02:07:07;2.05;;;1.30;;
39654;SDS011;25336;59.944;11.010;2024-01-27T02:09:33;3.10;;;1.58;;
39654;SDS011;25336;59.944;11.010;2024-01-27T02:11:59;4.63;;;1.50;;
39654;SDS011;25336;59.944;11.010;2024-01-27T02:14:25;1.88;;;1.45;;
39654;SDS011;25336;59.944;11.010;2024-01-27T02:16:52;4.55;;;1.70;;
39654;SDS011;25336;59.944;11.010;2024-01-27T02:19:18;3.15;;;1.38;;
39654;SDS011;25336;59.944;11.010;2024-01-27T02:21:44;2.53;;;1.52;;
39654;SDS011;25336;59.944;11.010;2024-01-27T02:24:11;2.25;;;1.65;;
39654;SDS011;25336;59.944;11.010;2024-01-27T02:26:37;1.98;;;1.45;;
39654;SDS011;25336;59.944;11.010;2024-01-27T02:29:02;3.35;;;1.88;;
39654;SDS011;25336;59.944;11.010;2024-01-27T02:31:28;3.00;;;1.52;;
39654;SDS011;25336;59.944;11.010;2024-01-27T02:33:54;2.88;;;1.30;;
39654;SDS011;25336;59.944;11.010;2024-01-27T02:36:20;2.50;;;1.42;;
39654;SDS011;25336;59.944;11.010;2024-01-27T02:38:46;2.80;;;1.20;;
39654;SDS011;25336;59.944;11.010;2024-01-27T02:41:11;2.15;;;1.55;;
39654;SDS011;25336;59.944;11.010;2024-01-27T02:43:37;2.67;;;1.55;;
39654;SDS011;25336;59.944;11.010;2024-01-27T02:46:11;4.05;;;1.42;;
39654;SDS011;25336;59.944;11.010;2024-01-27T02:48:41;2.42;;;1.45;;
39654;SDS011;25336;59.944;11.010;2024-01-27T02:51:08;3.75;;;1.50;;
39654;SDS011;25336;59.944;11.010;2024-01-27T02:53:34;4.10;;;1.73;;
39654;SDS011;25336;59.944;11.010;2024-01-27T02:56:00;2.08;;;1.52;;
39654;SDS011;25336;59.944;11.010;2024-01-27T02:58:25;2.22;;;1.42;;
39654;SDS011;25336;59.944;11.010;2024-01-27T03:00:51;3.13;;;1.50;;
39654;SDS011;25336;59.944;11.010;2024-01-27T03:03:18;3.10;;;1.40;;
39654;SDS011;25336;59.944;11.010;2024-01-27T03:05:44;2.60;;;1.55;;
39654;SDS011;25336;59.944;11.010;2024-01-27T03:08:10;3.40;;;1.38;;
39654;SDS011;25336;59.944;11.010;2024-01-27T03:10:35;3.33;;;1.40;;
39654;SDS011;25336;59.944;11.010;2024-01-27T03:13:01;2.17;;;1.30;;
39654;SDS011;25336;59.944;11.010;2024-01-27T03:15:27;3.80;;;1.70;;
39654;SDS011;25336;59.944;11.010;2024-01-27T03:17:53;2.28;;;1.45;;
39654;SDS011;25336;59.944;11.010;2024-01-27T03:20:19;1.88;;;1.60;;
39654;SDS011;25336;59.944;11.010;2024-01-27T03:22:44;3.83;;;1.92;;
39654;SDS011;25336;59.944;11.010;2024-01-27T03:25:11;4.32;;;1.77;;
39654;SDS011;25336;59.944;11.010;2024-01-27T03:27:37;4.15;;;1.98;;
39654;SDS011;25336;59.944;11.010;2024-01-27T03:30:03;2.10;;;1.52;;
39654;SDS011;25336;59.944;11.010;2024-01-27T03:32:32;2.85;;;1.50;;
39654;SDS011;25336;59.944;11.010;2024-01-27T03:35:00;1.83;;;1.42;;
39654;SDS011;25336;59.944;11.010;2024-01-27T03:37:27;2.95;;;1.63;;
39654;SDS011;25336;59.944;11.010;2024-01-27T03:39:53;2.05;;;1.20;;
39654;SDS011;25336;59.944;11.010;2024-01-27T03:42:18;2.67;;;1.40;;
39654;SDS011;25336;59.944;11.010;2024-01-27T03:44:45;4.20;;;1.75;;
39654;SDS011;25336;59.944;11.010;2024-01-27T03:47:11;2.97;;;1.55;;
39654;SDS011;25336;59.944;11.010;2024-01-27T03:49:37;2.78;;;1.20;;
39654;SDS011;25336;59.944;11.010;2024-01-27T03:52:02;2.80;;;2.10;;
39654;SDS011;25336;59.944;11.010;2024-01-27T03:54:29;2.70;;;1.33;;
39654;SDS011;25336;59.944;11.010;2024-01-27T03:56:54;2.67;;;1.48;;
39654;SDS011;25336;59.944;11.010;2024-01-27T03:59:20;1.73;;;1.20;;
39654;SDS011;25336;59.944;11.010;2024-01-27T04:01:46;1.95;;;1.20;;
39654;SDS011;25336;59.944;11.010;2024-01-27T04:04:12;2.83;;;1.92;;
39654;SDS011;25336;59.944;11.010;2024-01-27T04:06:41;3.38;;;2.10;;
39654;SDS011;25336;59.944;11.010;2024-01-27T04:09:07;4.32;;;1.77;;
39654;SDS011;25336;59.944;11.010;2024-01-27T04:11:36;1.60;;;1.27;;
39654;SDS011;25336;59.944;11.010;2024-01-27T04:14:04;2.63;;;2.03;;
39654;SDS011;25336;59.944;11.010;2024-01-27T04:16:30;2.30;;;1.40;;
39654;SDS011;25336;59.944;11.010;2024-01-27T04:18:56;4.07;;;1.30;;
39654;SDS011;25336;59.944;11.010;2024-01-27T04:21:22;3.33;;;1.40;;
39654;SDS011;25336;59.944;11.010;2024-01-27T04:23:48;0.93;;;0.90;;
39654;SDS011;25336;59.944;11.010;2024-01-27T04:26:14;3.55;;;1.33;;
39654;SDS011;25336;59.944;11.010;2024-01-27T04:28:40;2.10;;;1.67;;
39654;SDS011;25336;59.944;11.010;2024-01-27T04:31:06;2.42;;;1.30;;
39654;SDS011;25336;59.944;11.010;2024-01-27T04:33:32;2.13;;;0.95;;
39654;SDS011;25336;59.944;11.010;2024-01-27T04:35:58;6.57;;;1.77;;
39654;SDS011;25336;59.944;11.010;2024-01-27T04:38:24;4.78;;;1.45;;
39654;SDS011;25336;59.944;11.010;2024-01-27T04:40:50;4.03;;;1.77;;
39654;SDS011;25336;59.944;11.010;2024-01-27T04:43:18;2.70;;;1.33;;
39654;SDS011;25336;59.944;11.010;2024-01-27T04:45:45;2.90;;;1.20;;
39654;SDS011;25336;59.944;11.010;2024-01-27T04:48:12;7.65;;;1.90;;
39654;SDS011;25336;59.944;11.010;2024-01-27T04:50:38;1.52;;;1.00;;
39654;SDS011;25336;59.944;11.010;2024-01-27T04:53:03;2.25;;;0.95;;
39654;SDS011;25336;59.944;11.010;2024-01-27T04:55:29;4.18;;;2.75;;
39654;SDS011;25336;59.944;11.010;2024-01-27T04:57:55;5.40;;;1.45;;
39654;SDS011;25336;59.944;11.010;2024-01-27T05:00:23;1.52;;;1.02;;
39654;SDS011;25336;59.944;11.010;2024-01-27T05:02:51;2.83;;;1.00;;
39654;SDS011;25336;59.944;11.010;2024-01-27T05:05:17;1.77;;;1.10;;
39654;SDS011;25336;59.944;11.010;2024-01-27T05:07:43;1.73;;;1.20;;
39654;SDS011;25336;59.944;11.010;2024-01-27T05:10:12;1.60;;;0.82;;
39654;SDS011;25336;59.944;11.010;2024-01-27T05:12:39;2.60;;;1.75;;
39654;SDS011;25336;59.944;11.010;2024-01-27T05:15:05;4.55;;;1.40;;
39654;SDS011;25336;59.944;11.010;2024-01-27T05:17:31;4.75;;;2.25;;
39654;SDS011;25336;59.944;11.010;2024-01-27T05:19:57;3.97;;;1.92;;
39654;SDS011;25336;59.944;11.010;2024-01-27T05:22:23;1.75;;;1.35;;
39654;SDS011;25336;59.944;11.010;2024-01-27T05:24:49;5.53;;;3.65;;
39654;SDS011;25336;59.944;11.010;2024-01-27T05:27:15;5.40;;;2.78;;
39654;SDS011;25336;59.944;11.010;2024-01-27T05:29:40;2.95;;;1.60;;
39654;SDS011;25336;59.944;11.010;2024-01-27T05:32:06;4.93;;;1.35;;
39654;SDS011;25336;59.944;11.010;2024-01-27T05:34:32;5.15;;;1.85;;
39654;SDS011;25336;59.944;11.010;2024-01-27T05:36:57;3.95;;;1.20;;
39654;SDS011;25336;59.944;11.010;2024-01-27T05:39:23;2.72;;;1.40;;
39654;SDS011;25336;59.944;11.010;2024-01-27T05:41:49;2.25;;;1.67;;
39654;SDS011;25336;59.944;11.010;2024-01-27T05:44:14;2.97;;;1.27;;
39654;SDS011;25336;59.944;11.010;2024-01-27T05:46:40;3.03;;;1.10;;
39654;SDS011;25336;59.944;11.010;2024-01-27T05:49:06;2.70;;;1.48;;
39654;SDS011;25336;59.944;11.010;2024-01-27T05:51:32;4.15;;;1.63;;
39654;SDS011;25336;59.944;11.010;2024-01-27T05:53:58;1.63;;;1.20;;
39654;SDS011;25336;59.944;11.010;2024-01-27T05:56:24;3.10;;;1.13;;
39654;SDS011;25336;59.944;11.010;2024-01-27T05:58:50;1.95;;;1.17;;
39654;SDS011;25336;59.944;11.010;2024-01-27T06:01:19;2.45;;;1.40;;
39654;SDS011;25336;59.944;11.010;2024-01-27T06:03:46;5.13;;;1.58;;
39654;SDS011;25336;59.944;11.010;2024-01-27T06:06:12;2.88;;;1.90;;
39654;SDS011;25336;59.944;11.010;2024-01-27T06:08:38;2.88;;;1.20;;
39654;SDS011;25336;59.944;11.010;2024-01-27T06:11:04;2.28;;;1.02;;
39654;SDS011;25336;59.944;11.010;2024-01-27T06:13:29;1.80;;;1.42;;
39654;SDS011;25336;59.944;11.010;2024-01-27T06:15:55;3.13;;;1.23;;
39654;SDS011;25336;59.944;11.010;2024-01-27T06:18:21;3.05;;;1.25;;
39654;SDS011;25336;59.944;11.010;2024-01-27T06:20:47;2.08;;;1.20;;
39654;SDS011;25336;59.944;11.010;2024-01-27T06:23:13;3.83;;;1.50;;
39654;SDS011;25336;59.944;11.010;2024-01-27T06:25:39;2.60;;;1.60;;
39654;SDS011;25336;59.944;11.010;2024-01-27T06:28:05;5.25;;;1.50;;
39654;SDS011;25336;59.944;11.010;2024-01-27T06:30:32;4.38;;;1.80;;
39654;SDS011;25336;59.944;11.010;2024-01-27T06:32:58;5.05;;;2.40;;
39654;SDS011;25336;59.944;11.010;2024-01-27T06:35:23;8.60;;;3.65;;
39654;SDS011;25336;59.944;11.010;2024-01-27T06:37:49;2.60;;;2.40;;
39654;SDS011;25336;59.944;11.010;2024-01-27T06:40:15;5.70;;;2.65;;
39654;SDS011;25336;59.944;11.010;2024-01-27T06:42:41;3.10;;;2.05;;
39654;SDS011;25336;59.944;11.010;2024-01-27T06:45:07;7.80;;;2.53;;
39654;SDS011;25336;59.944;11.010;2024-01-27T06:47:33;4.35;;;2.20;;
39654;SDS011;25336;59.944;11.010;2024-01-27T06:49:59;6.60;;;1.95;;
39654;SDS011;25336;59.944;11.010;2024-01-27T06:52:24;2.20;;;1.85;;
39654;SDS011;25336;59.944;11.010;2024-01-27T06:54:50;5.22;;;1.85;;
39654;SDS011;25336;59.944;11.010;2024-01-27T06:57:19;5.22;;;2.08;;
39654;SDS011;25336;59.944;11.010;2024-01-27T06:59:46;3.20;;;1.80;;
39654;SDS011;25336;59.944;11.010;2024-01-27T07:02:26;3.80;;;2.80;;
39654;SDS011;25336;59.944;11.010;2024-01-27T07:04:54;2.58;;;1.73;;
39654;SDS011;25336;59.944;11.010;2024-01-27T07:07:26;3.75;;;2.20;;
39654;SDS011;25336;59.944;11.010;2024-01-27T07:09:54;2.35;;;1.88;;
39654;SDS011;25336;59.944;11.010;2024-01-27T07:12:20;3.13;;;1.52;;
39654;SDS011;25336;59.944;11.010;2024-01-27T07:14:46;7.78;;;2.30;;
39654;SDS011;25336;59.944;11.010;2024-01-27T07:17:11;6.45;;;2.15;;
39654;SDS011;25336;59.944;11.010;2024-01-27T07:19:38;5.40;;;1.55;;
39654;SDS011;25336;59.944;11.010;2024-01-27T07:22:04;3.28;;;1.80;;
39654;SDS011;25336;59.944;11.010;2024-01-27T07:24:30;4.65;;;2.30;;
39654;SDS011;25336;59.944;11.010;2024-01-27T07:26:56;3.58;;;2.63;;
39654;SDS011;25336;59.944;11.010;2024-01-27T07:29:23;11.15;;;6.30;;
39654;SDS011;25336;59.944;11.010;2024-01-27T07:31:49;7.00;;;4.03;;
39654;SDS011;25336;59.944;11.010;2024-01-27T07:34:15;6.65;;;3.28;;
39654;SDS011;25336;59.944;11.010;2024-01-27T07:36:41;8.00;;;3.10;;
39654;SDS011;25336;59.944;11.010;2024-01-27T07:39:07;5.18;;;3.60;;
39654;SDS011;25336;59.944;11.010;2024-01-27T07:41:33;7.90;;;3.58;;
39654;SDS011;25336;59.944;11.010;2024-01-27T07:44:13;7.72;;;4.22;;
39654;SDS011;25336;59.944;11.010;2024-01-27T07:46:39;4.25;;;2.85;;
39654;SDS011;25336;59.944;11.010;2024-01-27T07:49:07;3.63;;;2.58;;
39654;SDS011;25336;59.944;11.010;2024-01-27T07:51:33;4.82;;;2.63;;
39654;SDS011;25336;59.944;11.010;2024-01-27T07:53:59;7.30;;;2.50;;
39654;SDS011;25336;59.944;11.010;2024-01-27T07:56:26;6.70;;;2.30;;
39654;SDS011;25336;59.944;11.010;2024-01-27T07:58:52;5.03;;;2.30;;
39654;SDS011;25336;59.944;11.010;2024-01-27T08:01:18;5.85;;;2.83;;
39654;SDS011;25336;59.944;11.010;2024-01-27T08:03:44;5.93;;;3.65;;
39654;SDS011;25336;59.944;11.010;2024-01-27T08:06:17;4.32;;;2.80;;
39654;SDS011;25336;59.944;11.010;2024-01-27T08:08:44;7.32;;;3.15;;
39654;SDS011;25336;59.944;11.010;2024-01-27T08:11:11;9.85;;;2.88;;
39654;SDS011;25336;59.944;11.010;2024-01-27T08:13:37;4.22;;;2.85;;
39654;SDS011;25336;59.944;11.010;2024-01-27T08:16:02;7.78;;;6.97;;
39654;SDS011;25336;59.944;11.010;2024-01-27T08:18:30;15.55;;;8.50;;
39654;SDS011;25336;59.944;11.010;2024-01-27T08:20:56;6.75;;;3.88;;
39654;SDS011;25336;59.944;11.010;2024-01-27T08:23:22;7.22;;;3.78;;
39654;SDS011;25336;59.944;11.010;2024-01-27T08:25:48;8.38;;;4.63;;
39654;SDS011;25336;59.944;11.010;2024-01-27T08:28:17;7.35;;;5.53;;
39654;SDS011;25336;59.944;11.010;2024-01-27T08:30:44;7.50;;;3.88;;
39654;SDS011;25336;59.944;11.010;2024-01-27T08:33:10;8.38;;;4.57;;
39654;SDS011;25336;59.944;11.010;2024-01-27T08:35:36;9.23;;;4.93;;
39654;SDS011;25336;59.944;11.010;2024-01-27T08:38:02;7.85;;;4.40;;
39654;SDS011;25336;59.944;11.010;2024-01-27T08:40:29;7.72;;;3.75;;
39654;SDS011;25336;59.944;11.010;2024-01-27T08:42:54;8.57;;;3.30;;
39654;SDS011;25336;59.944;11.010;2024-01-27T08:45:20;6.90;;;3.50;;
39654;SDS011;25336;59.944;11.010;2024-01-27T08:47:46;8.18;;;3.78;;
39654;SDS011;25336;59.944;11.010;2024-01-27T08:50:12;4.55;;;3.47;;
39654;SDS011;25336;59.944;11.010;2024-01-27T08:52:38;5.95;;;3.15;;
39654;SDS011;25336;59.944;11.010;2024-01-27T08:55:03;8.70;;;2.90;;
39654;SDS011;25336;59.944;11.010;2024-01-27T08:57:29;6.28;;;2.75;;
39654;SDS011;25336;59.944;11.010;2024-01-27T08:59:55;5.55;;;2.50;;
39654;SDS011;25336;59.944;11.010;2024-01-27T09:02:20;7.53;;;2.78;;
39654;SDS011;25336;59.944;11.010;2024-01-27T09:04:46;4.85;;;3.13;;
39654;SDS011;25336;59.944;11.010;2024-01-27T09:07:12;3.35;;;2.83;;
39654;SDS011;25336;59.944;11.010;2024-01-27T09:09:38;5.05;;;3.55;;
39654;SDS011;25336;59.944;11.010;2024-01-27T09:12:04;6.80;;;3.30;;
39654;SDS011;25336;59.944;11.010;2024-01-27T09:14:30;5.47;;;3.40;;
39654;SDS011;25336;59.944;11.010;2024-01-27T09:16:57;4.78;;;3.45;;
39654;SDS011;25336;59.944;11.010;2024-01-27T09:19:22;6.80;;;3.63;;
39654;SDS011;25336;59.944;11.010;2024-01-27T09:21:48;5.78;;;3.88;;
39654;SDS011;25336;59.944;11.010;2024-01-27T09:24:14;5.78;;;3.38;;
39654;SDS011;25336;59.944;11.010;2024-01-27T09:26:39;9.40;;;3.08;;
39654;SDS011;25336;59.944;11.010;2024-01-27T09:29:06;9.15;;;3.03;;
39654;SDS011;25336;59.944;11.010;2024-01-27T09:31:32;5.57;;;3.53;;
39654;SDS011;25336;59.944;11.010;2024-01-27T09:34:00;4.28;;;3.00;;
39654;SDS011;25336;59.944;11.010;2024-01-27T09:36:29;8.35;;;3.00;;
39654;SDS011;25336;59.944;11.010;2024-01-27T09:38:55;11.48;;;2.75;;
39654;SDS011;25336;59.944;11.010;2024-01-27T09:41:20;10.57;;;3.53;;
39654;SDS011;25336;59.944;11.010;2024-01-27T09:43:46;7.57;;;2.88;;
39654;SDS011;25336;59.944;11.010;2024-01-27T09:46:15;6.30;;;2.80;;
39654;SDS011;25336;59.944;11.010;2024-01-27T09:48:42;5.70;;;2.47;;
39654;SDS011;25336;59.944;11.010;2024-01-27T09:51:09;5.90;;;2.60;;
39654;SDS011;25336;59.944;11.010;2024-01-27T09:53:36;9.98;;;4.00;;
39654;SDS011;25336;59.944;11.010;2024-01-27T09:56:02;9.65;;;5.07;;
39654;SDS011;25336;59.944;11.010;2024-01-27T09:58:31;10.93;;;4.80;;
39654;SDS011;25336;59.944;11.010;2024-01-27T10:00:58;7.55;;;3.45;;
39654;SDS011;25336;59.944;11.010;2024-01-27T10:03:25;7.80;;;3.75;;
39654;SDS011;25336;59.944;11.010;2024-01-27T10:05:53;8.90;;;3.17;;
39654;SDS011;25336;59.944;11.010;2024-01-27T10:08:23;4.43;;;2.72;;
39654;SDS011;25336;59.944;11.010;2024-01-27T10:10:56;8.35;;;3.47;;
39654;SDS011;25336;59.944;11.010;2024-01-27T10:13:22;8.80;;;3.85;;
39654;SDS011;25336;59.944;11.010;2024-01-27T10:16:01;12.07;;;3.97;;
39654;SDS011;25336;59.944;11.010;2024-01-27T10:18:34;8.70;;;3.28;;
39654;SDS011;25336;59.944;11.010;2024-01-27T10:21:00;11.63;;;3.85;;
39654;SDS011;25336;59.944;11.010;2024-01-27T10:23:39;11.63;;;5.43;;
39654;SDS011;25336;59.944;11.010;2024-01-27T10:26:05;9.40;;;4.10;;
39654;SDS011;25336;59.944;11.010;2024-01-27T10:28:33;11.73;;;5.05;;
39654;SDS011;25336;59.944;11.010;2024-01-27T10:31:11;12.60;;;5.53;;
39654;SDS011;25336;59.944;11.010;2024-01-27T10:33:38;12.60;;;4.72;;
39654;SDS011;25336;59.944;11.010;2024-01-27T10:36:04;16.20;;;5.65;;
39654;SDS011;25336;59.944;11.010;2024-01-27T10:38:48;8.20;;;4.05;;
39654;SDS011;25336;59.944;11.010;2024-01-27T10:41:18;7.35;;;3.47;;
39654;SDS011;25336;59.944;11.010;2024-01-27T10:43:52;7.90;;;3.22;;
39654;SDS011;25336;59.944;11.010;2024-01-27T10:46:21;6.88;;;3.65;;
39654;SDS011;25336;59.944;11.010;2024-01-27T10:48:51;11.35;;;3.85;;
39654;SDS011;25336;59.944;11.010;2024-01-27T10:51:18;9.35;;;3.33;;
39654;SDS011;25336;59.944;11.010;2024-01-27T10:53:52;9.48;;;3.33;;
39654;SDS011;25336;59.944;11.010;2024-01-27T10:56:24;12.70;;;4.60;;
39654;SDS011;25336;59.944;11.010;2024-01-27T10:58:52;9.63;;;3.80;;
39654;SDS011;25336;59.944;11.010;2024-01-27T11:01:19;12.00;;;3.88;;
39654;SDS011;25336;59.944;11.010;2024-01-27T11:03:48;12.73;;;4.38;;
39654;SDS011;25336;59.944;11.010;2024-01-27T11:06:17;8.95;;;3.15;;
39654;SDS011;25336;59.944;11.010;2024-01-27T11:08:46;11.07;;;4.00;;
39654;SDS011;25336;59.944;11.010;2024-01-27T11:11:14;7.15;;;3.42;;
39654;SDS011;25336;59.944;11.010;2024-01-27T11:13:40;7.30;;;3.90;;
39654;SDS011;25336;59.944;11.010;2024-01-27T11:16:14;15.38;;;4.47;;
39654;SDS011;25336;59.944;11.010;2024-01-27T11:18:42;9.48;;;4.47;;
39654;SDS011;25336;59.944;11.010;2024-01-27T11:21:12;10.77;;;4.43;;
39654;SDS011;25336;59.944;11.010;2024-01-27T11:23:41;13.57;;;3.95;;
39654;SDS011;25336;59.944;11.010;2024-01-27T11:26:08;12.75;;;3.72;;
39654;SDS011;25336;59.944;11.010;2024-01-27T11:28:34;8.07;;;3.58;;
39654;SDS011;25336;59.944;11.010;2024-01-27T11:31:04;12.80;;;3.90;;
39654;SDS011;25336;59.944;11.010;2024-01-27T11:33:33;11.82;;;3.92;;
39654;SDS011;25336;59.944;11.010;2024-01-27T11:36:05;8.98;;;4.65;;
39654;SDS011;25336;59.944;11.010;2024-01-27T11:38:32;11.25;;;3.47;;
39654;SDS011;25336;59.944;11.010;2024-01-27T11:40:59;16.40;;;4.10;;
39654;SDS011;25336;59.944;11.010;2024-01-27T11:43:25;11.15;;;4.40;;
39654;SDS011;25336;59.944;11.010;2024-01-27T11:45:57;13.63;;;4.55;;
39654;SDS011;25336;59.944;11.010;2024-01-27T11:48:26;16.23;;;5.65;;
39654;SDS011;25336;59.944;11.010;2024-01-27T11:51:02;11.88;;;4.53;;
39654;SDS011;25336;59.944;11.010;2024-01-27T11:53:30;11.20;;;4.40;;
39654;SDS011;25336;59.944;11.010;2024-01-27T11:55:56;11.75;;;3.85;;
39654;SDS011;25336;59.944;11.010;2024-01-27T11:58:24;7.78;;;3.55;;
39654;SDS011;25336;59.944;11.010;2024-01-27T12:00:49;15.85;;;4.32;;
39654;SDS011;25336;59.944;11.010;2024-01-27T12:03:15;10.50;;;4.45;;
39654;SDS011;25336;59.944;11.010;2024-01-27T12:05:42;14.07;;;5.85;;
39654;SDS011;25336;59.944;11.010;2024-01-27T12:08:08;24.35;;;6.00;;
39654;SDS011;25336;59.944;11.010;2024-01-27T12:10:34;20.90;;;5.93;;
39654;SDS011;25336;59.944;11.010;2024-01-27T12:13:00;9.23;;;4.20;;
39654;SDS011;25336;59.944;11.010;2024-01-27T12:15:26;14.45;;;4.28;;
39654;SDS011;25336;59.944;11.010;2024-01-27T12:17:53;11.32;;;4.63;;
39654;SDS011;25336;59.944;11.010;2024-01-27T12:20:19;11.95;;;4.30;;
39654;SDS011;25336;59.944;11.010;2024-01-27T12:22:47;16.55;;;5.97;;
39654;SDS011;25336;59.944;11.010;2024-01-27T12:25:14;18.95;;;4.68;;
39654;SDS011;25336;59.944;11.010;2024-01-27T12:27:40;10.63;;;3.50;;
39654;SDS011;25336;59.944;11.010;2024-01-27T12:30:08;10.77;;;3.85;;
39654;SDS011;25336;59.944;11.010;2024-01-27T12:32:35;10.18;;;3.85;;
39654;SDS011;25336;59.944;11.010;2024-01-27T12:35:07;12.20;;;3.50;;
39654;SDS011;25336;59.944;11.010;2024-01-27T12:37:36;12.38;;;3.90;;
39654;SDS011;25336;59.944;11.010;2024-01-27T12:40:02;12.52;;;4.32;;
39654;SDS011;25336;59.944;11.010;2024-01-27T12:42:41;21.73;;;5.80;;
39654;SDS011;25336;59.944;11.010;2024-01-27T12:45:07;11.77;;;3.65;;
39654;SDS011;25336;59.944;11.010;2024-01-27T12:47:33;12.95;;;4.00;;
39654;SDS011;25336;59.944;11.010;2024-01-27T12:49:59;14.75;;;4.10;;
39654;SDS011;25336;59.944;11.010;2024-01-27T12:52:25;11.40;;;3.95;;
39654;SDS011;25336;59.944;11.010;2024-01-27T12:54:51;13.65;;;3.78;;
39654;SDS011;25336;59.944;11.010;2024-01-27T12:57:17;9.38;;;3.28;;
39654;SDS011;25336;59.944;11.010;2024-01-27T12:59:43;7.43;;;3.30;;
39654;SDS011;25336;59.944;11.010;2024-01-27T13:02:09;12.05;;;3.90;;
39654;SDS011;25336;59.944;11.010;2024-01-27T13:04:34;12.02;;;3.17;;
39654;SDS011;25336;59.944;11.010;2024-01-27T13:07:00;10.23;;;2.90;;
39654;SDS011;25336;59.944;11.010;2024-01-27T13:09:26;12.73;;;3.00;;
39654;SDS011;25336;59.944;11.010;2024-01-27T13:11:51;14.52;;;3.78;;
39654;SDS011;25336;59.944;11.010;2024-01-27T13:14:17;11.38;;;4.28;;
39654;SDS011;25336;59.944;11.010;2024-01-27T13:16:45;9.38;;;3.75;;
39654;SDS011;25336;59.944;11.010;2024-01-27T13:19:12;9.73;;;2.78;;
39654;SDS011;25336;59.944;11.010;2024-01-27T13:21:37;6.57;;;2.13;;
39654;SDS011;25336;59.944;11.010;2024-01-27T13:24:05;7.93;;;2.72;;
39654;SDS011;25336;59.944;11.010;2024-01-27T13:26:33;8.70;;;2.47;;
39654;SDS011;25336;59.944;11.010;2024-01-27T13:29:03;9.25;;;2.65;;
39654;SDS011;25336;59.944;11.010;2024-01-27T13:31:29;12.18;;;4.20;;
39654;SDS011;25336;59.944;11.010;2024-01-27T13:33:56;9.70;;;4.95;;
39654;SDS011;25336;59.944;11.010;2024-01-27T13:36:22;11.05;;;4.32;;
39654;SDS011;25336;59.944;11.010;2024-01-27T13:38:48;11.52;;;2.85;;
39654;SDS011;25336;59.944;11.010;2024-01-27T13:41:14;11.65;;;2.92;;
39654;SDS011;25336;59.944;11.010;2024-01-27T13:43:41;11.23;;;4.03;;
39654;SDS011;25336;59.944;11.010;2024-01-27T13:46:06;9.40;;;3.60;;
39654;SDS011;25336;59.944;11.010;2024-01-27T13:48:32;12.68;;;3.60;;
39654;SDS011;25336;59.944;11.010;2024-01-27T13:50:59;12.55;;;4.38;;
39654;SDS011;25336;59.944;11.010;2024-01-27T13:53:24;13.55;;;5.68;;
39654;SDS011;25336;59.944;11.010;2024-01-27T13:55:50;16.15;;;5.18;;
39654;SDS011;25336;59.944;11.010;2024-01-27T13:58:17;12.80;;;5.00;;
39654;SDS011;25336;59.944;11.010;2024-01-27T14:00:43;9.43;;;4.40;;
39654;SDS011;25336;59.944;11.010;2024-01-27T14:03:09;11.43;;;4.40;;
39654;SDS011;25336;59.944;11.010;2024-01-27T14:05:34;10.27;;;4.10;;
39654;SDS011;25336;59.944;11.010;2024-01-27T14:08:00;13.20;;;4.40;;
39654;SDS011;25336;59.944;11.010;2024-01-27T14:10:26;17.63;;;5.40;;
39654;SDS011;25336;59.944;11.010;2024-01-27T14:12:52;19.67;;;6.40;;
39654;SDS011;25336;59.944;11.010;2024-01-27T14:15:18;21.02;;;8.13;;
39654;SDS011;25336;59.944;11.010;2024-01-27T14:17:44;19.95;;;8.05;;
39654;SDS011;25336;59.944;11.010;2024-01-27T14:20:10;21.85;;;9.18;;
39654;SDS011;25336;59.944;11.010;2024-01-27T14:22:37;23.30;;;9.02;;
39654;SDS011;25336;59.944;11.010;2024-01-27T14:25:03;26.10;;;10.10;;
39654;SDS011;25336;59.944;11.010;2024-01-27T14:27:29;24.02;;;8.52;;